Messwerte Ocala

Temperatur

Temperatur
°C
1624471200 14.00 14.00 28
1624474800 15.00 15.00 25
1624478400 16.00 16.00 29
1624482000 17.00 17.00 30
1624485600 18.00 18.00 26
1624489200 19.00 19.00
1624492800 20.00 20.00 23
1624496400 21.00 21.00 23
1624500000 22.00 22.00 23
1624503600 23.00 23.00 22
1624507200 0.00 0.00 22
1624510800 1.00 1.00 22
1624514400 2.00 2.00 22
1624518000 3.00 3.00 22
1624521600 4.00 4.00 22
1624525200 5.00 5.00 22
1624528800 6.00 6.00 22
1624532400 7.00 7.00 22
1624536000 8.00 8.00 23
1624539600 9.00 9.00 24
1624543200 10.00 10.00 26
1624546800 11.00 11.00 27
1624550400 12.00 12.00 28
1624554000 13.00 13.00

Wir danken unserem Partner:

Aktuellste Messwerte

Wettercharakter
Wetter: gewitterhaft
Temperatur
31 °C
Feuchtigkeit
65 %
Wind
10 km/hWindrichtung: Südost
Luftdruck
1021 hPa
Messzeit: 24. Juni 2021, 14.00Datenquelle: METAR

Weitere Messstationen in der Nähe

Messstation Temperatur Entfernung
Leesburg 30 °C 56 km
Gainesville 28 °C 58 km
Brooksville 30 °C 81 km
Orlando 31 °C 96 km
Cross City 28 °C 99 km
Orlando / Sanford Airport 28 °C 105 km
Ormond Beach 27 °C 109 km

Wind

Windrichtung Böen Mittelwind
° km/h km/h
1624471200 14.00 13.00 - 14.00 320° 15
1624474800 15.00 14.00 - 15.00 230° 10
1624478400 16.00 15.00 - 16.00 0
1624482000 17.00 16.00 - 17.00 330° 10
1624485600 18.00 17.00 - 18.00 310° 5
1624489200 19.00 18.00 - 19.00
1624492800 20.00 19.00 - 20.00 200° 10
1624496400 21.00 20.00 - 21.00 220° 5
1624500000 22.00 21.00 - 22.00 240° 10
1624503600 23.00 22.00 - 23.00 230° 10
1624507200 0.00 23.00 - 0.00 120° 5
1624510800 1.00 0.00 - 1.00 300° 5
1624514400 2.00 1.00 - 2.00 0
1624518000 3.00 2.00 - 3.00 110° 5
1624521600 4.00 3.00 - 4.00 0
1624525200 5.00 4.00 - 5.00 70° 5
1624528800 6.00 5.00 - 6.00 30° 5
1624532400 7.00 6.00 - 7.00 0
1624536000 8.00 7.00 - 8.00 60° 5
1624539600 9.00 8.00 - 9.00 110° 5
1624543200 10.00 9.00 - 10.00 5
1624546800 11.00 10.00 - 11.00 130° 15
1624550400 12.00 11.00 - 12.00 0
1624554000 13.00 12.00 - 13.00

Ihre Wetterstation

Fehlt Ihre Wetterstation auf unserem Portal?

Schreiben Sie an network@meteonews.ch

Klima

Wann ist es am wärmsten? Wann regnet es am wenigsten? Unsere Klimadaten geben Auskunft.